sensor_id;sensor_type;location;lat;lon;timestamp;pressure;altitude;pressure_sealevel;temperature;humidity
73624;BME280;61921;53.226;-1.296;2022-09-21T00:00:07;101575.42;;;16.78;67.58
73624;BME280;61921;53.226;-1.296;2022-09-21T00:02:31;101571.19;;;16.79;67.51
73624;BME280;61921;53.226;-1.296;2022-09-21T00:04:57;101570.34;;;16.82;67.20
73624;BME280;61921;53.226;-1.296;2022-09-21T00:07:22;101569.58;;;16.85;67.22
73624;BME280;61921;53.226;-1.296;2022-09-21T00:09:47;101567.69;;;16.82;67.23
73624;BME280;61921;53.226;-1.296;2022-09-21T00:12:12;101567.74;;;16.79;67.15
73624;BME280;61921;53.226;-1.296;2022-09-21T00:14:38;101565.29;;;16.52;68.38
73624;BME280;61921;53.226;-1.296;2022-09-21T00:17:04;101559.16;;;16.66;67.77
73624;BME280;61921;53.226;-1.296;2022-09-21T00:19:29;101564.50;;;16.32;68.99
73624;BME280;61921;53.226;-1.296;2022-09-21T00:21:55;101563.05;;;16.51;68.15
73624;BME280;61921;53.226;-1.296;2022-09-21T00:24:20;101561.79;;;16.55;68.14
73624;BME280;61921;53.226;-1.296;2022-09-21T00:26:46;101563.75;;;16.54;68.07
73624;BME280;61921;53.226;-1.296;2022-09-21T00:29:11;101566.09;;;16.52;67.95
73624;BME280;61921;53.226;-1.296;2022-09-21T00:31:37;101569.05;;;16.49;68.25
73624;BME280;61921;53.226;-1.296;2022-09-21T00:34:02;101571.32;;;16.49;68.47
73624;BME280;61921;53.226;-1.296;2022-09-21T00:36:28;101576.34;;;16.53;67.90
73624;BME280;61921;53.226;-1.296;2022-09-21T00:38:55;101576.10;;;16.50;67.96
73624;BME280;61921;53.226;-1.296;2022-09-21T00:41:20;101575.93;;;16.47;67.97
73624;BME280;61921;53.226;-1.296;2022-09-21T00:43:46;101576.61;;;16.53;67.96
73624;BME280;61921;53.226;-1.296;2022-09-21T00:46:15;101575.91;;;16.52;67.77
73624;BME280;61921;53.226;-1.296;2022-09-21T00:48:36;101575.26;;;16.55;67.73
73624;BME280;61921;53.226;-1.296;2022-09-21T00:51:05;101575.29;;;16.56;68.23
73624;BME280;61921;53.226;-1.296;2022-09-21T00:53:28;101577.05;;;16.33;68.46
73624;BME280;61921;53.226;-1.296;2022-09-21T00:55:55;101577.32;;;15.77;70.38
73624;BME280;61921;53.226;-1.296;2022-09-21T00:58:20;101574.86;;;15.83;70.47
73624;BME280;61921;53.226;-1.296;2022-09-21T01:00:43;101578.37;;;15.97;69.83
73624;BME280;61921;53.226;-1.296;2022-09-21T01:03:10;101578.66;;;16.05;69.62
73624;BME280;61921;53.226;-1.296;2022-09-21T01:05:34;101579.85;;;16.12;69.42
73624;BME280;61921;53.226;-1.296;2022-09-21T01:08:02;101577.62;;;16.14;69.27
73624;BME280;61921;53.226;-1.296;2022-09-21T01:10:25;101574.72;;;16.05;69.73
73624;BME280;61921;53.226;-1.296;2022-09-21T01:13:00;101571.84;;;16.15;69.50
73624;BME280;61921;53.226;-1.296;2022-09-21T01:15:25;101566.93;;;16.17;69.38
73624;BME280;61921;53.226;-1.296;2022-09-21T01:17:48;101562.82;;;16.19;69.25
73624;BME280;61921;53.226;-1.296;2022-09-21T01:20:24;101560.63;;;16.17;68.84
73624;BME280;61921;53.226;-1.296;2022-09-21T01:22:43;101559.88;;;16.18;68.77
73624;BME280;61921;53.226;-1.296;2022-09-21T01:25:07;101561.64;;;16.16;68.95
73624;BME280;61921;53.226;-1.296;2022-09-21T01:27:38;101561.93;;;16.18;68.61
73624;BME280;61921;53.226;-1.296;2022-09-21T01:29:53;101560.74;;;16.23;67.30
73624;BME280;61921;53.226;-1.296;2022-09-21T01:32:18;101559.13;;;16.27;66.94
73624;BME280;61921;53.226;-1.296;2022-09-21T01:34:45;101559.37;;;16.29;65.77
73624;BME280;61921;53.226;-1.296;2022-09-21T01:37:11;101556.95;;;16.32;65.31
73624;BME280;61921;53.226;-1.296;2022-09-21T01:39:33;101553.92;;;16.36;64.93
73624;BME280;61921;53.226;-1.296;2022-09-21T01:41:58;101556.27;;;16.40;64.79
73624;BME280;61921;53.226;-1.296;2022-09-21T01:44:27;101553.06;;;16.35;66.32
73624;BME280;61921;53.226;-1.296;2022-09-21T01:46:49;101550.41;;;16.33;66.72
73624;BME280;61921;53.226;-1.296;2022-09-21T01:49:16;101546.91;;;16.40;66.94
73624;BME280;61921;53.226;-1.296;2022-09-21T01:51:43;101548.53;;;16.44;66.84
73624;BME280;61921;53.226;-1.296;2022-09-21T01:54:08;101548.98;;;16.45;66.86
73624;BME280;61921;53.226;-1.296;2022-09-21T01:56:34;101544.24;;;16.46;66.32
73624;BME280;61921;53.226;-1.296;2022-09-21T01:59:02;101545.78;;;16.44;66.18
73624;BME280;61921;53.226;-1.296;2022-09-21T02:01:23;101542.54;;;16.21;66.76
73624;BME280;61921;53.226;-1.296;2022-09-21T02:03:50;101540.17;;;16.20;67.22
73624;BME280;61921;53.226;-1.296;2022-09-21T02:06:14;101535.77;;;16.23;67.02
73624;BME280;61921;53.226;-1.296;2022-09-21T02:08:39;101533.04;;;16.23;66.57
73624;BME280;61921;53.226;-1.296;2022-09-21T02:11:05;101531.74;;;16.24;66.30
73624;BME280;61921;53.226;-1.296;2022-09-21T02:13:31;101529.14;;;16.22;66.00
73624;BME280;61921;53.226;-1.296;2022-09-21T02:16:06;101533.54;;;15.87;67.80
73624;BME280;61921;53.226;-1.296;2022-09-21T02:18:28;101532.79;;;15.75;68.40
73624;BME280;61921;53.226;-1.296;2022-09-21T02:20:50;101533.34;;;15.72;68.59
73624;BME280;61921;53.226;-1.296;2022-09-21T02:23:15;101528.64;;;15.78;68.46
73624;BME280;61921;53.226;-1.296;2022-09-21T02:25:44;101525.41;;;15.67;68.45
73624;BME280;61921;53.226;-1.296;2022-09-21T02:28:07;101524.99;;;15.68;68.43
73624;BME280;61921;53.226;-1.296;2022-09-21T02:30:27;101522.81;;;15.75;68.30
73624;BME280;61921;53.226;-1.296;2022-09-21T02:32:58;101516.99;;;15.70;67.99
73624;BME280;61921;53.226;-1.296;2022-09-21T02:35:27;101516.20;;;15.68;67.97
73624;BME280;61921;53.226;-1.296;2022-09-21T02:37:47;101515.40;;;15.69;67.81
73624;BME280;61921;53.226;-1.296;2022-09-21T02:40:18;101515.73;;;15.67;68.00
73624;BME280;61921;53.226;-1.296;2022-09-21T02:42:38;101514.30;;;15.63;68.05
73624;BME280;61921;53.226;-1.296;2022-09-21T02:45:05;101515.39;;;15.60;67.75
73624;BME280;61921;53.226;-1.296;2022-09-21T02:47:28;101515.46;;;15.55;67.45
73624;BME280;61921;53.226;-1.296;2022-09-21T02:49:53;101513.18;;;15.58;67.74
73624;BME280;61921;53.226;-1.296;2022-09-21T02:52:16;101511.35;;;15.55;67.94
73624;BME280;61921;53.226;-1.296;2022-09-21T02:54:44;101510.03;;;15.55;67.92
73624;BME280;61921;53.226;-1.296;2022-09-21T02:57:07;101505.00;;;15.56;67.87
73624;BME280;61921;53.226;-1.296;2022-09-21T02:59:32;101501.36;;;15.51;67.31
73624;BME280;61921;53.226;-1.296;2022-09-21T03:01:57;101496.11;;;15.47;66.83
73624;BME280;61921;53.226;-1.296;2022-09-21T03:04:22;101496.27;;;15.42;66.92
73624;BME280;61921;53.226;-1.296;2022-09-21T03:06:48;101498.49;;;15.40;66.86
73624;BME280;61921;53.226;-1.296;2022-09-21T03:09:14;101501.58;;;15.34;66.70
73624;BME280;61921;53.226;-1.296;2022-09-21T03:11:38;101504.12;;;15.34;66.59
73624;BME280;61921;53.226;-1.296;2022-09-21T03:14:04;101504.96;;;15.30;66.90
73624;BME280;61921;53.226;-1.296;2022-09-21T03:16:29;101505.74;;;15.32;66.90
73624;BME280;61921;53.226;-1.296;2022-09-21T03:18:55;101501.97;;;15.32;66.92
73624;BME280;61921;53.226;-1.296;2022-09-21T03:21:20;101499.18;;;15.41;66.57
73624;BME280;61921;53.226;-1.296;2022-09-21T03:23:46;101498.02;;;15.45;66.46
73624;BME280;61921;53.226;-1.296;2022-09-21T03:26:12;101494.94;;;15.42;66.38
73624;BME280;61921;53.226;-1.296;2022-09-21T03:28:38;101494.88;;;15.34;66.20
73624;BME280;61921;53.226;-1.296;2022-09-21T03:31:03;101496.69;;;15.29;66.61
73624;BME280;61921;53.226;-1.296;2022-09-21T03:33:29;101496.46;;;15.30;66.68
73624;BME280;61921;53.226;-1.296;2022-09-21T03:35:54;101496.04;;;15.36;66.46
73624;BME280;61921;53.226;-1.296;2022-09-21T03:38:19;101497.47;;;15.34;66.05
73624;BME280;61921;53.226;-1.296;2022-09-21T03:40:45;101499.46;;;15.33;66.59
73624;BME280;61921;53.226;-1.296;2022-09-21T03:43:10;101494.98;;;15.32;66.52
73624;BME280;61921;53.226;-1.296;2022-09-21T03:45:35;101491.70;;;15.40;65.76
73624;BME280;61921;53.226;-1.296;2022-09-21T03:48:00;101493.13;;;15.44;66.08
73624;BME280;61921;53.226;-1.296;2022-09-21T03:50:27;101493.91;;;15.49;65.97
73624;BME280;61921;53.226;-1.296;2022-09-21T03:52:51;101494.80;;;15.55;65.71
73624;BME280;61921;53.226;-1.296;2022-09-21T03:55:16;101496.82;;;15.56;65.49
73624;BME280;61921;53.226;-1.296;2022-09-21T03:57:42;101498.19;;;15.56;65.63
73624;BME280;61921;53.226;-1.296;2022-09-21T04:00:09;101497.34;;;15.54;65.75
73624;BME280;61921;53.226;-1.296;2022-09-21T04:02:32;101497.52;;;15.46;66.01
73624;BME280;61921;53.226;-1.296;2022-09-21T04:04:58;101493.72;;;15.37;65.90
73624;BME280;61921;53.226;-1.296;2022-09-21T04:07:23;101492.94;;;15.42;66.10
73624;BME280;61921;53.226;-1.296;2022-09-21T04:09:49;101492.49;;;15.48;66.07
73624;BME280;61921;53.226;-1.296;2022-09-21T04:12:14;101490.38;;;15.39;66.17
73624;BME280;61921;53.226;-1.296;2022-09-21T04:14:40;101492.42;;;15.35;66.50
73624;BME280;61921;53.226;-1.296;2022-09-21T04:17:05;101490.03;;;15.42;66.33
73624;BME280;61921;53.226;-1.296;2022-09-21T04:19:31;101487.00;;;15.38;66.81
73624;BME280;61921;53.226;-1.296;2022-09-21T04:21:56;101484.42;;;15.36;66.75
73624;BME280;61921;53.226;-1.296;2022-09-21T04:24:21;101483.27;;;15.35;66.76
73624;BME280;61921;53.226;-1.296;2022-09-21T04:26:47;101477.70;;;15.40;66.52
73624;BME280;61921;53.226;-1.296;2022-09-21T04:29:14;101477.68;;;15.34;66.76
73624;BME280;61921;53.226;-1.296;2022-09-21T04:31:38;101476.40;;;15.37;66.68
73624;BME280;61921;53.226;-1.296;2022-09-21T04:34:04;101473.37;;;15.31;66.93
73624;BME280;61921;53.226;-1.296;2022-09-21T04:36:29;101473.41;;;15.25;67.20
73624;BME280;61921;53.226;-1.296;2022-09-21T04:38:54;101473.75;;;15.30;67.04
73624;BME280;61921;53.226;-1.296;2022-09-21T04:41:19;101472.77;;;15.21;67.42
73624;BME280;61921;53.226;-1.296;2022-09-21T04:43:46;101471.52;;;15.27;67.14
73624;BME280;61921;53.226;-1.296;2022-09-21T04:46:12;101467.69;;;14.85;68.46
73624;BME280;61921;53.226;-1.296;2022-09-21T04:48:36;101471.53;;;14.88;68.64
73624;BME280;61921;53.226;-1.296;2022-09-21T04:51:02;101470.82;;;14.78;68.75
73624;BME280;61921;53.226;-1.296;2022-09-21T04:53:27;101473.25;;;14.91;68.54
73624;BME280;61921;53.226;-1.296;2022-09-21T04:55:53;101474.49;;;14.89;68.39
73624;BME280;61921;53.226;-1.296;2022-09-21T04:58:18;101472.30;;;14.81;68.50
73624;BME280;61921;53.226;-1.296;2022-09-21T05:00:44;101468.79;;;14.40;70.29
73624;BME280;61921;53.226;-1.296;2022-09-21T05:03:09;101471.44;;;14.42;70.19
73624;BME280;61921;53.226;-1.296;2022-09-21T05:05:35;101474.36;;;14.41;70.19
73624;BME280;61921;53.226;-1.296;2022-09-21T05:08:01;101476.53;;;14.36;70.28
73624;BME280;61921;53.226;-1.296;2022-09-21T05:10:26;101474.95;;;14.38;70.45
73624;BME280;61921;53.226;-1.296;2022-09-21T05:12:51;101481.41;;;14.40;70.37
73624;BME280;61921;53.226;-1.296;2022-09-21T05:15:16;101482.10;;;14.31;70.56
73624;BME280;61921;53.226;-1.296;2022-09-21T05:17:41;101481.55;;;14.39;70.48
73624;BME280;61921;53.226;-1.296;2022-09-21T05:20:07;101483.31;;;14.33;71.16
73624;BME280;61921;53.226;-1.296;2022-09-21T05:22:32;101485.20;;;14.40;70.97
73624;BME280;61921;53.226;-1.296;2022-09-21T05:24:57;101485.37;;;14.48;70.96
73624;BME280;61921;53.226;-1.296;2022-09-21T05:27:22;101484.83;;;14.57;70.52
73624;BME280;61921;53.226;-1.296;2022-09-21T05:29:48;101484.02;;;14.64;70.41
73624;BME280;61921;53.226;-1.296;2022-09-21T05:32:17;101482.08;;;14.72;70.16
73624;BME280;61921;53.226;-1.296;2022-09-21T05:34:48;101482.18;;;14.78;69.97
73624;BME280;61921;53.226;-1.296;2022-09-21T05:37:08;101483.05;;;14.84;69.91
73624;BME280;61921;53.226;-1.296;2022-09-21T05:39:29;101489.44;;;14.60;70.63
73624;BME280;61921;53.226;-1.296;2022-09-21T05:41:54;101487.67;;;14.85;69.79
73624;BME280;61921;53.226;-1.296;2022-09-21T05:44:19;101488.80;;;14.89;69.48
73624;BME280;61921;53.226;-1.296;2022-09-21T05:46:48;101492.05;;;14.97;69.42
73624;BME280;61921;53.226;-1.296;2022-09-21T05:49:17;101493.63;;;15.07;69.25
73624;BME280;61921;53.226;-1.296;2022-09-21T05:51:41;101497.50;;;15.03;68.83
73624;BME280;61921;53.226;-1.296;2022-09-21T05:54:05;101495.32;;;15.02;69.11
73624;BME280;61921;53.226;-1.296;2022-09-21T05:56:40;101495.19;;;15.03;69.30
73624;BME280;61921;53.226;-1.296;2022-09-21T05:58:59;101494.82;;;14.95;69.64
73624;BME280;61921;53.226;-1.296;2022-09-21T06:01:24;101495.93;;;14.93;69.96
73624;BME280;61921;53.226;-1.296;2022-09-21T06:03:43;101496.38;;;14.96;69.99
73624;BME280;61921;53.226;-1.296;2022-09-21T06:06:08;101500.29;;;14.93;70.04
73624;BME280;61921;53.226;-1.296;2022-09-21T06:08:32;101500.18;;;15.04;69.94
73624;BME280;61921;53.226;-1.296;2022-09-21T06:10:58;101500.94;;;15.16;69.71
73624;BME280;61921;53.226;-1.296;2022-09-21T06:13:23;101504.72;;;15.15;70.03
73624;BME280;61921;53.226;-1.296;2022-09-21T06:15:49;101505.66;;;15.18;70.10
73624;BME280;61921;53.226;-1.296;2022-09-21T06:18:14;101507.30;;;15.17;69.97
73624;BME280;61921;53.226;-1.296;2022-09-21T06:20:40;101505.16;;;15.31;69.70
73624;BME280;61921;53.226;-1.296;2022-09-21T06:23:06;101505.76;;;15.38;69.35
73624;BME280;61921;53.226;-1.296;2022-09-21T06:25:30;101510.16;;;15.49;69.17
73624;BME280;61921;53.226;-1.296;2022-09-21T06:28:01;101507.76;;;15.52;69.18
73624;BME280;61921;53.226;-1.296;2022-09-21T06:30:21;101506.46;;;15.62;68.97
73624;BME280;61921;53.226;-1.296;2022-09-21T06:32:46;101508.96;;;15.69;68.85
73624;BME280;61921;53.226;-1.296;2022-09-21T06:35:12;101506.67;;;15.81;68.42
73624;BME280;61921;53.226;-1.296;2022-09-21T06:37:37;101505.83;;;15.85;68.32
73624;BME280;61921;53.226;-1.296;2022-09-21T06:40:03;101503.46;;;15.91;68.15
73624;BME280;61921;53.226;-1.296;2022-09-21T06:42:27;101501.32;;;15.93;68.16
73624;BME280;61921;53.226;-1.296;2022-09-21T06:44:53;101507.40;;;16.07;67.85
73624;BME280;61921;53.226;-1.296;2022-09-21T06:47:18;101505.88;;;16.09;67.99
73624;BME280;61921;53.226;-1.296;2022-09-21T06:49:44;101508.06;;;16.23;67.62
73624;BME280;61921;53.226;-1.296;2022-09-21T06:52:09;101508.20;;;16.31;66.99
73624;BME280;61921;53.226;-1.296;2022-09-21T06:54:34;101508.88;;;16.35;67.03
73624;BME280;61921;53.226;-1.296;2022-09-21T06:57:00;101507.23;;;16.41;66.75
73624;BME280;61921;53.226;-1.296;2022-09-21T06:59:26;101507.61;;;16.44;66.69
73624;BME280;61921;53.226;-1.296;2022-09-21T07:01:52;101505.49;;;16.55;66.41
73624;BME280;61921;53.226;-1.296;2022-09-21T07:04:17;101505.14;;;16.66;66.36
73624;BME280;61921;53.226;-1.296;2022-09-21T07:06:42;101510.31;;;16.72;66.28
73624;BME280;61921;53.226;-1.296;2022-09-21T07:09:08;101511.11;;;16.75;66.04
73624;BME280;61921;53.226;-1.296;2022-09-21T07:11:34;101507.57;;;16.83;66.28
73624;BME280;61921;53.226;-1.296;2022-09-21T07:13:59;101507.17;;;16.86;66.25
73624;BME280;61921;53.226;-1.296;2022-09-21T07:16:24;101504.58;;;16.91;66.32
73624;BME280;61921;53.226;-1.296;2022-09-21T07:18:50;101500.70;;;16.90;66.12
73624;BME280;61921;53.226;-1.296;2022-09-21T07:21:15;101499.16;;;16.97;66.22
73624;BME280;61921;53.226;-1.296;2022-09-21T07:23:41;101497.58;;;16.94;66.56
73624;BME280;61921;53.226;-1.296;2022-09-21T07:26:09;101498.58;;;16.97;66.46
73624;BME280;61921;53.226;-1.296;2022-09-21T07:28:32;101500.81;;;16.88;66.61
73624;BME280;61921;53.226;-1.296;2022-09-21T07:30:58;101497.75;;;16.85;66.71
73624;BME280;61921;53.226;-1.296;2022-09-21T07:33:23;101497.03;;;16.86;66.63
73624;BME280;61921;53.226;-1.296;2022-09-21T07:35:51;101497.35;;;16.83;66.93
73624;BME280;61921;53.226;-1.296;2022-09-21T07:38:14;101496.56;;;16.88;66.80
73624;BME280;61921;53.226;-1.296;2022-09-21T07:40:39;101497.59;;;16.87;66.98
73624;BME280;61921;53.226;-1.296;2022-09-21T07:43:05;101494.84;;;16.83;66.84
73624;BME280;61921;53.226;-1.296;2022-09-21T07:45:30;101493.05;;;16.84;66.73
73624;BME280;61921;53.226;-1.296;2022-09-21T07:48:01;101492.27;;;16.84;66.81
73624;BME280;61921;53.226;-1.296;2022-09-21T07:50:22;101491.49;;;16.91;67.40
73624;BME280;61921;53.226;-1.296;2022-09-21T07:52:47;101491.80;;;16.99;66.88
73624;BME280;61921;53.226;-1.296;2022-09-21T07:55:12;101495.67;;;17.16;66.50
73624;BME280;61921;53.226;-1.296;2022-09-21T07:57:37;101497.83;;;17.26;65.81
73624;BME280;61921;53.226;-1.296;2022-09-21T08:00:04;101499.53;;;17.38;65.43
73624;BME280;61921;53.226;-1.296;2022-09-21T08:02:28;101503.93;;;17.43;65.38
73624;BME280;61921;53.226;-1.296;2022-09-21T08:04:54;101503.15;;;17.51;65.37
73624;BME280;61921;53.226;-1.296;2022-09-21T08:07:20;101502.41;;;17.61;65.48
73624;BME280;61921;53.226;-1.296;2022-09-21T08:09:44;101497.92;;;17.61;65.42
73624;BME280;61921;53.226;-1.296;2022-09-21T08:12:10;101496.07;;;17.74;65.42
73624;BME280;61921;53.226;-1.296;2022-09-21T08:14:36;101495.46;;;17.69;64.99
73624;BME280;61921;53.226;-1.296;2022-09-21T08:17:01;101492.02;;;17.79;65.30
73624;BME280;61921;53.226;-1.296;2022-09-21T08:19:27;101492.99;;;17.77;65.03
73624;BME280;61921;53.226;-1.296;2022-09-21T08:21:52;101491.96;;;17.90;65.54
73624;BME280;61921;53.226;-1.296;2022-09-21T08:24:17;101493.43;;;18.02;64.47
73624;BME280;61921;53.226;-1.296;2022-09-21T08:26:43;101495.54;;;18.15;64.34
73624;BME280;61921;53.226;-1.296;2022-09-21T08:29:09;101491.90;;;18.26;63.58
73624;BME280;61921;53.226;-1.296;2022-09-21T08:31:33;101494.58;;;18.41;63.45
73624;BME280;61921;53.226;-1.296;2022-09-21T08:33:59;101498.47;;;18.44;62.95
73624;BME280;61921;53.226;-1.296;2022-09-21T08:36:25;101497.23;;;18.27;62.43
73624;BME280;61921;53.226;-1.296;2022-09-21T08:38:51;101499.52;;;18.42;63.12
73624;BME280;61921;53.226;-1.296;2022-09-21T08:41:19;101501.94;;;18.31;63.31
73624;BME280;61921;53.226;-1.296;2022-09-21T08:43:44;101500.03;;;18.37;63.24
73624;BME280;61921;53.226;-1.296;2022-09-21T08:46:10;101498.22;;;18.45;62.20
73624;BME280;61921;53.226;-1.296;2022-09-21T08:48:38;101495.85;;;18.65;62.30
73624;BME280;61921;53.226;-1.296;2022-09-21T08:51:00;101498.03;;;18.45;62.06
73624;BME280;61921;53.226;-1.296;2022-09-21T08:53:29;101500.84;;;18.61;61.75
73624;BME280;61921;53.226;-1.296;2022-09-21T08:55:50;101498.96;;;18.43;61.60
73624;BME280;61921;53.226;-1.296;2022-09-21T08:58:21;101498.96;;;18.59;61.57
73624;BME280;61921;53.226;-1.296;2022-09-21T09:00:41;101498.49;;;18.71;61.41
73624;BME280;61921;53.226;-1.296;2022-09-21T09:03:22;101496.24;;;18.92;61.28
73624;BME280;61921;53.226;-1.296;2022-09-21T09:05:38;101492.96;;;18.88;60.69
73624;BME280;61921;53.226;-1.296;2022-09-21T09:08:09;101499.62;;;18.78;61.49
73624;BME280;61921;53.226;-1.296;2022-09-21T09:10:34;101497.52;;;19.01;59.87
73624;BME280;61921;53.226;-1.296;2022-09-21T09:12:56;101495.03;;;19.17;58.48
73624;BME280;61921;53.226;-1.296;2022-09-21T09:15:23;101497.72;;;18.99;58.76
73624;BME280;61921;53.226;-1.296;2022-09-21T09:17:48;101499.43;;;18.98;57.87
73624;BME280;61921;53.226;-1.296;2022-09-21T09:20:09;101499.15;;;19.22;57.96
73624;BME280;61921;53.226;-1.296;2022-09-21T09:22:35;101499.17;;;19.22;58.16
73624;BME280;61921;53.226;-1.296;2022-09-21T09:25:01;101501.88;;;19.25;58.22
73624;BME280;61921;53.226;-1.296;2022-09-21T09:27:26;101502.38;;;19.21;58.72
73624;BME280;61921;53.226;-1.296;2022-09-21T09:29:53;101501.94;;;19.28;58.94
73624;BME280;61921;53.226;-1.296;2022-09-21T09:32:14;101506.05;;;19.29;58.52
73624;BME280;61921;53.226;-1.296;2022-09-21T09:34:40;101499.40;;;19.00;58.48
73624;BME280;61921;53.226;-1.296;2022-09-21T09:37:10;101500.83;;;19.17;59.21
73624;BME280;61921;53.226;-1.296;2022-09-21T09:39:29;101504.54;;;19.60;59.01
73624;BME280;61921;53.226;-1.296;2022-09-21T09:42:13;101501.78;;;19.46;58.94
73624;BME280;61921;53.226;-1.296;2022-09-21T09:44:36;101501.34;;;19.33;59.39
73624;BME280;61921;53.226;-1.296;2022-09-21T09:46:52;101501.11;;;19.38;58.27
73624;BME280;61921;53.226;-1.296;2022-09-21T09:49:19;101499.17;;;18.91;57.85
73624;BME280;61921;53.226;-1.296;2022-09-21T09:51:38;101498.85;;;19.12;56.69
73624;BME280;61921;53.226;-1.296;2022-09-21T09:54:01;101497.51;;;19.14;56.49
73624;BME280;61921;53.226;-1.296;2022-09-21T09:56:27;101495.01;;;19.11;56.76
73624;BME280;61921;53.226;-1.296;2022-09-21T09:58:56;101495.12;;;19.21;56.59
73624;BME280;61921;53.226;-1.296;2022-09-21T10:01:36;101495.85;;;19.29;56.57
73624;BME280;61921;53.226;-1.296;2022-09-21T10:06:16;101495.89;;;19.64;55.37
73624;BME280;61921;53.226;-1.296;2022-09-21T10:08:40;101498.98;;;19.68;53.95
73624;BME280;61921;53.226;-1.296;2022-09-21T10:10:59;101499.27;;;19.80;54.47
73624;BME280;61921;53.226;-1.296;2022-09-21T10:13:28;101496.45;;;20.01;54.56
73624;BME280;61921;53.226;-1.296;2022-09-21T10:15:53;101494.74;;;20.13;53.74
73624;BME280;61921;53.226;-1.296;2022-09-21T10:18:19;101490.77;;;20.22;52.98
73624;BME280;61921;53.226;-1.296;2022-09-21T10:20:52;101490.14;;;19.98;53.32
73624;BME280;61921;53.226;-1.296;2022-09-21T10:23:08;101488.14;;;19.97;53.19
73624;BME280;61921;53.226;-1.296;2022-09-21T10:25:31;101492.14;;;19.81;54.24
73624;BME280;61921;53.226;-1.296;2022-09-21T10:27:57;101486.75;;;20.15;53.31
73624;BME280;61921;53.226;-1.296;2022-09-21T10:30:30;101486.92;;;20.10;52.78
73624;BME280;61921;53.226;-1.296;2022-09-21T10:32:53;101484.61;;;20.24;52.59
73624;BME280;61921;53.226;-1.296;2022-09-21T10:35:16;101483.04;;;20.49;52.30
73624;BME280;61921;53.226;-1.296;2022-09-21T10:37:38;101484.09;;;20.60;51.71
73624;BME280;61921;53.226;-1.296;2022-09-21T10:40:08;101487.64;;;20.66;51.69
73624;BME280;61921;53.226;-1.296;2022-09-21T10:42:30;101489.01;;;20.70;50.72
73624;BME280;61921;53.226;-1.296;2022-09-21T10:45:03;101487.76;;;20.62;51.76
73624;BME280;61921;53.226;-1.296;2022-09-21T10:47:21;101485.80;;;21.19;50.13
73624;BME280;61921;53.226;-1.296;2022-09-21T10:49:46;101483.08;;;21.04;50.20
73624;BME280;61921;53.226;-1.296;2022-09-21T10:52:09;101479.48;;;21.34;50.13
73624;BME280;61921;53.226;-1.296;2022-09-21T10:54:34;101477.93;;;21.61;49.55
73624;BME280;61921;53.226;-1.296;2022-09-21T10:57:02;101469.67;;;22.09;47.88
73624;BME280;61921;53.226;-1.296;2022-09-21T10:59:26;101469.43;;;22.22;47.22
73624;BME280;61921;53.226;-1.296;2022-09-21T11:01:51;101465.12;;;22.27;46.47
73624;BME280;61921;53.226;-1.296;2022-09-21T11:04:19;101464.16;;;22.77;46.13
73624;BME280;61921;53.226;-1.296;2022-09-21T11:06:43;101459.09;;;22.52;44.45
73624;BME280;61921;53.226;-1.296;2022-09-21T11:09:08;101459.16;;;22.60;43.43
73624;BME280;61921;53.226;-1.296;2022-09-21T11:11:40;101461.72;;;22.01;42.37
73624;BME280;61921;53.226;-1.296;2022-09-21T11:14:00;101463.47;;;21.89;43.82
73624;BME280;61921;53.226;-1.296;2022-09-21T11:16:23;101456.25;;;22.16;42.62
73624;BME280;61921;53.226;-1.296;2022-09-21T11:18:50;101449.71;;;22.43;41.59
73624;BME280;61921;53.226;-1.296;2022-09-21T11:21:16;101450.64;;;22.29;42.33
73624;BME280;61921;53.226;-1.296;2022-09-21T11:23:46;101444.45;;;22.15;42.90
73624;BME280;61921;53.226;-1.296;2022-09-21T11:26:05;101441.82;;;22.48;42.20
73624;BME280;61921;53.226;-1.296;2022-09-21T11:28:27;101441.63;;;21.86;42.62
73624;BME280;61921;53.226;-1.296;2022-09-21T11:31:04;101440.26;;;21.59;43.15
73624;BME280;61921;53.226;-1.296;2022-09-21T11:33:26;101438.20;;;21.37;44.82
73624;BME280;61921;53.226;-1.296;2022-09-21T11:35:54;101439.18;;;21.07;45.25
73624;BME280;61921;53.226;-1.296;2022-09-21T11:38:11;101440.93;;;20.93;45.46
73624;BME280;61921;53.226;-1.296;2022-09-21T11:40:40;101438.49;;;21.00;46.06
73624;BME280;61921;53.226;-1.296;2022-09-21T11:43:06;101434.35;;;21.34;45.31
73624;BME280;61921;53.226;-1.296;2022-09-21T11:45:33;101431.33;;;21.77;44.44
73624;BME280;61921;53.226;-1.296;2022-09-21T11:47:55;101430.56;;;22.05;43.18
73624;BME280;61921;53.226;-1.296;2022-09-21T11:50:24;101431.00;;;21.78;42.88
73624;BME280;61921;53.226;-1.296;2022-09-21T11:52:46;101427.89;;;21.98;42.30
73624;BME280;61921;53.226;-1.296;2022-09-21T11:55:14;101427.59;;;22.03;41.24
73624;BME280;61921;53.226;-1.296;2022-09-21T11:57:32;101425.99;;;21.89;41.73
73624;BME280;61921;53.226;-1.296;2022-09-21T12:00:06;101421.28;;;21.73;42.91
73624;BME280;61921;53.226;-1.296;2022-09-21T12:02:32;101423.61;;;21.92;43.07
73624;BME280;61921;53.226;-1.296;2022-09-21T12:04:48;101421.99;;;21.66;42.94
73624;BME280;61921;53.226;-1.296;2022-09-21T12:07:19;101421.25;;;21.68;42.77
73624;BME280;61921;53.226;-1.296;2022-09-21T12:12:03;101419.90;;;21.81;43.18
73624;BME280;61921;53.226;-1.296;2022-09-21T12:14:28;101412.32;;;21.69;43.37
73624;BME280;61921;53.226;-1.296;2022-09-21T12:16:53;101417.13;;;21.62;43.54
73624;BME280;61921;53.226;-1.296;2022-09-21T12:19:19;101412.35;;;21.81;43.37
73624;BME280;61921;53.226;-1.296;2022-09-21T12:21:40;101411.36;;;21.44;42.83
73624;BME280;61921;53.226;-1.296;2022-09-21T12:24:11;101408.82;;;21.58;43.62
73624;BME280;61921;53.226;-1.296;2022-09-21T12:26:32;101413.67;;;21.97;42.76
73624;BME280;61921;53.226;-1.296;2022-09-21T12:28:58;101413.63;;;21.62;42.69
73624;BME280;61921;53.226;-1.296;2022-09-21T12:31:23;101409.47;;;21.42;43.11
73624;BME280;61921;53.226;-1.296;2022-09-21T12:33:47;101407.50;;;21.45;42.59